createdAt,value
2023-05-10T00:01:58.360Z,20.65
2023-05-10T00:05:59.186Z,20.53
2023-05-10T00:09:59.348Z,20.43
2023-05-10T00:14:02.158Z,20.24
2023-05-10T00:18:02.828Z,20.22
2023-05-10T00:22:03.719Z,20.07
2023-05-10T00:26:04.468Z,20.26
2023-05-10T00:30:09.148Z,20.29
2023-05-10T00:34:09.536Z,20.24
2023-05-10T00:38:10.644Z,20.30
2023-05-10T00:42:11.045Z,20.21
2023-05-10T00:46:14.548Z,20.25
2023-05-10T00:50:15.712Z,20.16
2023-05-10T00:54:18.338Z,20.26
2023-05-10T00:58:19.121Z,20.36
2023-05-10T01:02:22.115Z,20.42
2023-05-10T01:06:22.361Z,20.47
2023-05-10T01:10:23.161Z,20.21
2023-05-10T01:14:24.749Z,20.42
2023-05-10T01:18:29.127Z,20.50
2023-05-10T01:23:05.888Z,20.56
2023-05-10T01:27:40.174Z,20.61
2023-05-10T01:32:25.097Z,20.61
2023-05-10T01:36:35.082Z,20.52
2023-05-10T01:40:44.701Z,20.40
2023-05-10T01:44:56.826Z,20.21
2023-05-10T01:49:04.347Z,20.26
2023-05-10T01:53:10.612Z,20.33
2023-05-10T01:57:15.248Z,20.37
2023-05-10T02:01:17.602Z,20.40
2023-05-10T02:05:24.072Z,20.49
2023-05-10T02:09:27.747Z,20.22
2023-05-10T02:13:30.907Z,19.97
2023-05-10T02:17:34.457Z,19.76
2023-05-10T02:21:39.499Z,19.59
2023-05-10T02:25:41.555Z,19.28
2023-05-10T02:29:42.702Z,19.49
2023-05-10T02:33:46.110Z,19.34
2023-05-10T02:37:50.729Z,19.44
2023-05-10T02:41:53.854Z,19.59
2023-05-10T02:45:54.380Z,19.44
2023-05-10T02:49:54.818Z,19.25
2023-05-10T02:54:01.086Z,19.26
2023-05-10T02:58:04.926Z,19.16
2023-05-10T03:02:06.352Z,19.49
2023-05-10T03:06:06.942Z,19.55
2023-05-10T03:10:12.312Z,19.42
2023-05-10T03:14:29.148Z,19.53
2023-05-10T03:18:41.178Z,19.40
2023-05-10T03:22:53.795Z,19.12
2023-05-10T03:27:05.572Z,19.12
2023-05-10T03:31:08.227Z,19.20
2023-05-10T03:35:11.932Z,18.88
2023-05-10T03:39:12.435Z,18.67
2023-05-10T03:43:15.321Z,18.60
2023-05-10T03:47:16.128Z,18.44
2023-05-10T03:51:16.889Z,18.33
2023-05-10T03:55:17.383Z,18.38
2023-05-10T03:59:20.655Z,18.25
2023-05-10T04:03:21.474Z,18.07
2023-05-10T04:07:21.912Z,18.07
2023-05-10T04:11:23.130Z,18.03
2023-05-10T04:15:26.366Z,18.02
2023-05-10T04:19:26.912Z,17.95
2023-05-10T04:23:27.323Z,17.90
2023-05-10T04:27:27.803Z,17.78
2023-05-10T04:31:30.818Z,17.71
2023-05-10T04:35:31.139Z,17.77
2023-05-10T04:39:31.348Z,17.75
2023-05-10T04:43:31.877Z,17.79
2023-05-10T04:47:34.665Z,17.76
2023-05-10T04:51:35.395Z,17.61
2023-05-10T04:55:35.997Z,17.72
2023-05-10T04:59:36.196Z,17.83
2023-05-10T05:03:39.242Z,18.03
2023-05-10T05:07:39.620Z,17.96
2023-05-10T05:11:41.038Z,18.08
2023-05-10T05:15:41.329Z,18.18
2023-05-10T05:19:44.145Z,18.10
2023-05-10T05:23:44.368Z,18.13
2023-05-10T05:27:44.589Z,18.07
2023-05-10T05:31:44.907Z,18.05
2023-05-10T05:35:51.875Z,18.31
2023-05-10T05:39:52.766Z,18.31
2023-05-10T05:43:52.991Z,18.18
2023-05-10T05:47:53.331Z,18.37
2023-05-10T05:51:56.259Z,18.30
2023-05-10T05:55:58.302Z,18.64
2023-05-10T05:59:58.480Z,18.69
2023-05-10T06:03:58.878Z,18.50
2023-05-10T06:08:04.153Z,18.87
2023-05-10T06:12:04.374Z,18.74
2023-05-10T06:16:04.868Z,19.01
2023-05-10T06:20:05.163Z,18.99
2023-05-10T06:24:09.706Z,19.46
2023-05-10T06:28:09.887Z,19.49
2023-05-10T06:32:10.520Z,19.35
2023-05-10T06:36:11.111Z,19.71
2023-05-10T06:40:15.877Z,19.61
2023-05-10T06:44:16.727Z,19.76
2023-05-10T06:48:17.024Z,19.97
2023-05-10T06:52:17.248Z,20.01
2023-05-10T06:56:22.653Z,20.13
2023-05-10T07:00:23.894Z,20.24
2023-05-10T07:04:24.181Z,20.64
2023-05-10T07:08:24.396Z,20.83
2023-05-10T07:12:27.319Z,21.29
2023-05-10T07:16:27.538Z,21.67
2023-05-10T07:20:28.255Z,21.76
2023-05-10T07:24:28.683Z,21.73
2023-05-10T07:28:31.483Z,21.67
2023-05-10T07:32:31.824Z,21.96
2023-05-10T07:36:32.135Z,21.60
2023-05-10T07:40:33.164Z,21.44
2023-05-10T07:44:35.985Z,21.37
2023-05-10T07:48:36.113Z,21.40
2023-05-10T07:52:36.743Z,21.76
2023-05-10T07:56:37.424Z,21.69
2023-05-10T08:00:40.696Z,21.62
2023-05-10T08:04:41.280Z,21.77
2023-05-10T08:08:41.940Z,21.89
2023-05-10T08:12:42.383Z,20.88
2023-05-10T08:16:45.248Z,20.95
2023-05-10T08:20:45.579Z,21.61
2023-05-10T08:24:47.156Z,22.42
2023-05-10T08:28:47.652Z,23.04
2023-05-10T08:32:50.626Z,23.92
2023-05-10T08:36:51.697Z,25.27
2023-05-10T08:40:57.679Z,25.07
2023-05-10T08:45:00.904Z,24.25
2023-05-10T08:49:08.814Z,23.64
2023-05-10T08:53:14.355Z,22.62
2023-05-10T08:57:15.017Z,21.85
2023-05-10T09:01:17.533Z,20.84
2023-05-10T09:05:20.715Z,20.71
2023-05-10T09:09:21.860Z,21.16
2023-05-10T09:13:24.851Z,21.85
2023-05-10T09:17:28.356Z,22.28
2023-05-10T09:21:31.810Z,22.95
2023-05-10T09:25:34.364Z,22.94
2023-05-10T09:29:44.413Z,23.02
2023-05-10T09:33:48.879Z,23.09
2023-05-10T09:37:55.062Z,22.02
2023-05-10T09:41:55.332Z,22.46
2023-05-10T09:45:56.728Z,22.81
2023-05-10T09:49:59.493Z,23.10
2023-05-10T09:54:19.533Z,23.67
2023-05-10T09:58:19.837Z,24.97
2023-05-10T10:02:20.753Z,26.15
2023-05-10T10:06:30.219Z,26.95
2023-05-10T10:10:35.696Z,26.36
2023-05-10T10:14:36.454Z,24.52
2023-05-10T10:18:39.902Z,23.57
2023-05-10T10:22:41.431Z,23.23
2023-05-10T10:26:46.614Z,23.54
2023-05-10T10:30:50.851Z,25.74
2023-05-10T10:34:52.051Z,26.69
2023-05-10T10:39:04.392Z,26.42
2023-05-10T10:43:28.587Z,26.81
2023-05-10T10:47:34.435Z,24.82
2023-05-10T10:51:40.567Z,26.08
2023-05-10T10:55:51.244Z,24.58
2023-05-10T10:59:54.346Z,24.27
2023-05-10T11:04:22.295Z,22.86
2023-05-10T11:08:30.211Z,21.81
2023-05-10T11:12:30.481Z,21.86
2023-05-10T11:16:46.509Z,21.61
2023-05-10T11:20:47.998Z,20.89
2023-05-10T11:25:02.118Z,20.72
2023-05-10T11:29:05.574Z,21.29
2023-05-10T11:33:09.187Z,21.64
2023-05-10T11:37:09.538Z,22.49
2023-05-10T11:41:12.570Z,23.38
2023-05-10T11:45:14.357Z,23.71
2023-05-10T11:49:17.475Z,24.35
2023-05-10T11:53:17.887Z,25.37
2023-05-10T11:57:18.119Z,25.87
2023-05-10T12:01:18.463Z,25.34
2023-05-10T12:05:21.699Z,25.77
2023-05-10T12:09:35.337Z,25.98
2023-05-10T12:13:36.142Z,24.56
2023-05-10T12:17:37.784Z,24.16
2023-05-10T12:21:42.540Z,24.06
2023-05-10T12:25:44.286Z,23.77
2023-05-10T12:29:47.941Z,23.22
2023-05-10T12:33:52.718Z,23.25
2023-05-10T12:37:55.612Z,23.80
2023-05-10T12:41:56.309Z,24.21
2023-05-10T12:45:56.942Z,24.69
2023-05-10T12:49:57.226Z,25.20
2023-05-10T12:54:00.041Z,26.11
2023-05-10T12:58:00.620Z,26.87
2023-05-10T13:02:01.821Z,26.88
2023-05-10T13:06:02.017Z,26.21
2023-05-10T13:10:05.276Z,25.73
2023-05-10T13:14:07.208Z,24.96
2023-05-10T13:18:08.084Z,23.12
2023-05-10T13:22:08.546Z,23.43
2023-05-10T13:26:11.813Z,23.26
2023-05-10T13:30:13.959Z,22.51
2023-05-10T13:34:14.300Z,22.52
2023-05-10T13:38:14.911Z,22.44
2023-05-10T13:42:17.941Z,22.45
2023-05-10T13:46:18.877Z,22.65
2023-05-10T13:50:20.065Z,23.11
2023-05-10T13:54:21.508Z,23.50
2023-05-10T13:58:25.184Z,23.23
2023-05-10T14:02:27.046Z,22.84
2023-05-10T14:06:28.147Z,23.10
2023-05-10T14:10:28.410Z,23.39
2023-05-10T14:14:31.321Z,23.04
2023-05-10T14:18:31.838Z,23.17
2023-05-10T14:22:32.055Z,23.24
2023-05-10T14:26:32.444Z,23.55
2023-05-10T14:30:36.523Z,23.48
2023-05-10T14:34:36.875Z,23.63
2023-05-10T14:38:37.308Z,23.76
2023-05-10T14:42:37.579Z,23.79
2023-05-10T14:46:40.672Z,23.85
2023-05-10T14:50:43.726Z,24.03
2023-05-10T14:54:44.207Z,23.85
2023-05-10T14:58:44.382Z,23.94
2023-05-10T15:02:47.301Z,23.66
2023-05-10T15:06:48.312Z,23.03
2023-05-10T15:10:48.869Z,22.87
2023-05-10T15:14:49.160Z,22.85
2023-05-10T15:18:52.161Z,22.97
2023-05-10T15:22:52.422Z,22.86
2023-05-10T15:26:52.582Z,22.40
2023-05-10T15:30:53.512Z,22.22
2023-05-10T15:34:56.823Z,22.15
2023-05-10T15:38:57.796Z,22.03
2023-05-10T15:42:58.457Z,22.23
2023-05-10T15:46:59.653Z,22.45
2023-05-10T15:51:02.948Z,22.17
2023-05-10T15:55:13.122Z,21.94
2023-05-10T15:59:13.512Z,21.64
2023-05-10T16:03:14.707Z,21.38
2023-05-10T16:07:17.562Z,21.44
2023-05-10T16:11:17.841Z,21.28
2023-05-10T16:15:18.488Z,21.29
2023-05-10T16:19:19.124Z,21.13
2023-05-10T16:23:22.879Z,20.74
2023-05-10T16:27:23.232Z,20.68
2023-05-10T16:31:23.614Z,20.34
2023-05-10T16:35:24.251Z,20.35
2023-05-10T16:39:27.265Z,20.15
2023-05-10T16:43:27.424Z,20.09
2023-05-10T16:47:27.694Z,20.37
2023-05-10T16:51:28.040Z,20.38
2023-05-10T16:55:31.022Z,20.32
2023-05-10T16:59:31.795Z,20.23
2023-05-10T17:03:32.129Z,19.92
2023-05-10T17:07:32.436Z,19.54
2023-05-10T17:11:35.789Z,19.62
2023-05-10T17:15:36.166Z,19.66
2023-05-10T17:19:36.573Z,19.55
2023-05-10T17:23:36.742Z,19.59
2023-05-10T17:27:39.687Z,19.69
2023-05-10T17:31:40.330Z,19.55
2023-05-10T17:35:40.609Z,19.51
2023-05-10T17:39:40.903Z,19.47
2023-05-10T17:43:44.744Z,19.67
2023-05-10T17:47:45.252Z,19.39
2023-05-10T17:51:48.123Z,19.63
2023-05-10T17:55:48.501Z,19.59
2023-05-10T17:59:51.488Z,19.57
2023-05-10T18:03:53.064Z,19.43
2023-05-10T18:07:53.560Z,19.18
2023-05-10T18:11:54.169Z,19.17
2023-05-10T18:15:57.096Z,19.25
2023-05-10T18:19:57.554Z,19.33
2023-05-10T18:23:57.847Z,19.38
2023-05-10T18:27:58.306Z,19.54
2023-05-10T18:32:01.132Z,19.04
2023-05-10T18:36:02.692Z,19.00
2023-05-10T18:40:04.959Z,19.14
2023-05-10T18:44:05.678Z,19.24
2023-05-10T18:48:09.166Z,19.25
2023-05-10T18:52:09.619Z,19.37
2023-05-10T18:56:10.466Z,19.27
2023-05-10T19:00:13.279Z,19.17
2023-05-10T19:04:16.365Z,19.36
2023-05-10T19:08:16.831Z,19.26
2023-05-10T19:12:17.220Z,19.40
2023-05-10T19:16:20.272Z,19.45
2023-05-10T19:20:24.434Z,19.45
2023-05-10T19:24:25.979Z,19.55
2023-05-10T19:28:26.766Z,19.53
2023-05-10T19:32:27.196Z,19.50
2023-05-10T19:36:30.073Z,19.72
2023-05-10T19:40:30.413Z,19.57
2023-05-10T19:44:30.849Z,19.70
2023-05-10T19:48:31.903Z,19.61
2023-05-10T19:52:34.862Z,19.50
2023-05-10T19:56:35.674Z,19.61
2023-05-10T20:00:36.240Z,19.41
2023-05-10T20:04:36.799Z,19.33
2023-05-10T20:08:39.660Z,19.56
2023-05-10T20:12:39.937Z,19.56
2023-05-10T20:16:40.389Z,19.56
2023-05-10T20:20:40.825Z,20.04
2023-05-10T20:24:45.500Z,19.95
2023-05-10T20:28:46.770Z,20.19
2023-05-10T20:32:48.014Z,19.81
2023-05-10T20:36:48.370Z,19.86
2023-05-10T20:40:51.390Z,19.49
2023-05-10T20:44:51.977Z,19.39
2023-05-10T20:48:52.190Z,19.51
2023-05-10T20:52:53.218Z,19.53
2023-05-10T20:56:56.379Z,19.34
2023-05-10T21:00:56.662Z,19.67
2023-05-10T21:04:57.910Z,19.62
2023-05-10T21:08:58.503Z,19.75
2023-05-10T21:13:01.609Z,20.02
2023-05-10T21:17:01.793Z,19.94
2023-05-10T21:21:02.219Z,19.88
2023-05-10T21:25:02.484Z,19.68
2023-05-10T21:29:05.400Z,19.70
2023-05-10T21:33:06.013Z,19.65
2023-05-10T21:37:06.291Z,19.67
2023-05-10T21:41:10.404Z,19.65
2023-05-10T21:45:14.605Z,19.84
2023-05-10T21:49:14.865Z,20.10
2023-05-10T21:53:15.151Z,19.90
2023-05-10T21:57:15.429Z,19.97
2023-05-10T22:01:18.370Z,19.96
2023-05-10T22:05:19.611Z,19.88
2023-05-10T22:09:21.990Z,19.44
2023-05-10T22:13:22.222Z,19.26
2023-05-10T22:17:25.126Z,19.28
2023-05-10T22:21:26.063Z,19.23
2023-05-10T22:25:26.268Z,19.14
2023-05-10T22:29:26.574Z,19.17
2023-05-10T22:33:29.388Z,19.09
2023-05-10T22:37:29.657Z,19.14
2023-05-10T22:41:29.859Z,19.21
2023-05-10T22:45:30.602Z,18.78
2023-05-10T22:49:33.509Z,19.00
2023-05-10T22:53:33.739Z,19.06
2023-05-10T22:57:34.517Z,19.11
2023-05-10T23:01:34.876Z,19.00
2023-05-10T23:05:37.769Z,18.87
2023-05-10T23:09:37.926Z,18.93
2023-05-10T23:13:38.098Z,18.97
2023-05-10T23:17:38.214Z,18.83
2023-05-10T23:21:41.224Z,18.73
2023-05-10T23:25:41.818Z,18.84
2023-05-10T23:29:42.091Z,19.11
2023-05-10T23:33:42.255Z,19.09
2023-05-10T23:37:45.812Z,19.00
2023-05-10T23:41:46.135Z,18.81
2023-05-10T23:45:46.743Z,18.73
2023-05-10T23:49:47.106Z,18.52
2023-05-10T23:53:49.996Z,18.30
2023-05-10T23:57:50.200Z,18.52
